createdAt,value
2018-09-27T00:01:04.669Z,12.88
2018-09-27T00:03:38.718Z,12.82
2018-09-27T00:06:11.685Z,12.84
2018-09-27T00:08:46.134Z,12.83
2018-09-27T00:11:19.142Z,12.78
2018-09-27T00:13:51.861Z,12.65
2018-09-27T00:16:25.626Z,12.57
2018-09-27T00:18:58.841Z,12.57
2018-09-27T00:21:33.235Z,12.58
2018-09-27T00:24:06.446Z,12.58
2018-09-27T00:26:37.295Z,12.56
2018-09-27T00:29:10.870Z,12.55
2018-09-27T00:31:44.251Z,12.50
2018-09-27T00:34:16.303Z,12.38
2018-09-27T00:36:45.919Z,12.37
2018-09-27T00:39:15.811Z,12.36
2018-09-27T00:41:49.506Z,12.34
2018-09-27T00:44:22.781Z,12.34
2018-09-27T00:46:56.281Z,12.29
2018-09-27T00:49:29.713Z,12.28
2018-09-27T00:52:00.853Z,12.22
2018-09-27T00:54:30.432Z,12.19
2018-09-27T00:57:03.439Z,12.19
2018-09-27T00:59:36.655Z,12.18
2018-09-27T01:02:08.910Z,12.12
2018-09-27T01:04:42.583Z,12.10
2018-09-27T01:07:15.928Z,12.14
2018-09-27T01:09:47.635Z,12.13
2018-09-27T01:12:21.781Z,12.23
2018-09-27T01:14:55.263Z,12.24
2018-09-27T01:17:28.617Z,12.21
2018-09-27T01:20:00.982Z,12.31
2018-09-27T01:22:34.580Z,12.35
2018-09-27T01:25:07.889Z,12.39
2018-09-27T01:27:41.940Z,12.44
2018-09-27T01:30:14.757Z,12.49
2018-09-27T01:32:47.678Z,12.56
2018-09-27T01:35:22.516Z,12.59
2018-09-27T01:37:53.433Z,12.59
2018-09-27T01:40:23.064Z,12.64
2018-09-27T01:42:52.657Z,12.69
2018-09-27T01:45:22.226Z,12.70
2018-09-27T01:47:55.631Z,12.72
2018-09-27T01:50:25.388Z,12.74
2018-09-27T01:52:55.249Z,12.73
2018-09-27T01:55:24.785Z,12.74
2018-09-27T01:57:54.659Z,12.74
2018-09-27T02:00:24.271Z,12.72
2018-09-27T02:02:57.456Z,12.72
2018-09-27T02:05:30.614Z,12.73
2018-09-27T02:08:03.998Z,12.70
2018-09-27T02:10:36.792Z,12.74
2018-09-27T02:13:10.416Z,12.75
2018-09-27T02:15:43.197Z,12.75
2018-09-27T02:18:16.538Z,12.72
2018-09-27T02:20:50.408Z,12.73
2018-09-27T02:23:24.023Z,12.72
2018-09-27T02:25:54.216Z,12.75
2018-09-27T02:28:27.370Z,12.76
2018-09-27T02:31:00.678Z,12.76
2018-09-27T02:33:34.133Z,12.77
2018-09-27T02:36:07.665Z,12.79
2018-09-27T02:38:40.580Z,12.79
2018-09-27T02:41:13.907Z,12.80
2018-09-27T02:43:47.034Z,12.80
2018-09-27T02:46:20.406Z,12.76
2018-09-27T02:48:53.807Z,12.77
2018-09-27T02:51:23.468Z,12.77
2018-09-27T02:53:56.843Z,12.77
2018-09-27T02:56:30.068Z,12.78
2018-09-27T02:59:03.422Z,12.78
2018-09-27T03:01:33.037Z,12.74
2018-09-27T03:04:02.598Z,12.75
2018-09-27T03:06:32.156Z,12.76
2018-09-27T03:09:01.763Z,12.76
2018-09-27T03:11:31.274Z,12.76
2018-09-27T03:14:00.828Z,12.76
2018-09-27T03:16:30.578Z,12.75
2018-09-27T03:19:00.070Z,12.72
2018-09-27T03:21:29.605Z,12.75
2018-09-27T03:23:59.147Z,12.73
2018-09-27T03:26:29.015Z,12.76
2018-09-27T03:28:58.940Z,12.72
2018-09-27T03:31:28.523Z,12.74
2018-09-27T03:33:58.137Z,12.69
2018-09-27T03:36:27.637Z,12.66
2018-09-27T03:38:57.157Z,12.69
2018-09-27T03:41:26.915Z,12.67
2018-09-27T03:43:56.421Z,12.66
2018-09-27T03:46:25.952Z,12.64
2018-09-27T03:48:58.391Z,12.64
2018-09-27T03:51:27.904Z,12.61
2018-09-27T03:53:57.495Z,12.62
2018-09-27T03:56:30.079Z,12.62
2018-09-27T03:59:02.337Z,12.61
2018-09-27T04:01:32.179Z,12.59
2018-09-27T04:04:01.678Z,12.58
2018-09-27T04:06:31.248Z,12.55
2018-09-27T04:09:00.856Z,12.48
2018-09-27T04:11:30.632Z,12.44
2018-09-27T04:14:00.304Z,12.39
2018-09-27T04:16:30.017Z,12.37
2018-09-27T04:18:59.908Z,12.40
2018-09-27T04:21:29.458Z,12.40
2018-09-27T04:23:59.068Z,12.40
2018-09-27T04:26:29.992Z,12.40
2018-09-27T04:29:00.405Z,12.31
2018-09-27T04:31:29.968Z,12.24
2018-09-27T04:33:59.504Z,12.08
2018-09-27T04:36:29.072Z,11.97
2018-09-27T04:38:58.647Z,11.89
2018-09-27T04:41:28.219Z,11.79
2018-09-27T04:43:57.803Z,11.69
2018-09-27T04:46:27.360Z,11.69
2018-09-27T04:48:56.912Z,11.66
2018-09-27T04:51:26.728Z,11.62
2018-09-27T04:53:56.352Z,11.64
2018-09-27T04:56:25.980Z,11.66
2018-09-27T04:58:55.542Z,11.70
2018-09-27T05:01:25.048Z,11.74
2018-09-27T05:03:54.661Z,11.73
2018-09-27T05:06:24.408Z,11.68
2018-09-27T05:08:54.169Z,11.70
2018-09-27T05:11:23.750Z,11.76
2018-09-27T05:13:53.389Z,11.80
2018-09-27T05:16:22.932Z,11.82
2018-09-27T05:18:52.599Z,11.80
2018-09-27T05:21:22.141Z,11.81
2018-09-27T05:23:51.841Z,11.81
2018-09-27T05:26:21.397Z,11.76
2018-09-27T05:28:50.915Z,11.71
2018-09-27T05:31:20.811Z,11.71
2018-09-27T05:33:50.351Z,11.69
2018-09-27T05:36:31.269Z,11.68
2018-09-27T05:39:01.131Z,11.59
2018-09-27T05:41:30.667Z,11.50
2018-09-27T05:44:00.225Z,11.48
2018-09-27T05:46:29.837Z,11.54
2018-09-27T05:48:59.818Z,11.61
2018-09-27T05:51:29.386Z,11.68
2018-09-27T05:53:59.149Z,11.70
2018-09-27T05:56:28.727Z,11.71
2018-09-27T05:58:58.291Z,11.75
2018-09-27T06:01:28.181Z,11.77
2018-09-27T06:04:01.838Z,11.75
2018-09-27T06:06:34.972Z,11.76
2018-09-27T06:09:11.575Z,11.73
2018-09-27T06:11:44.462Z,11.71
2018-09-27T06:14:17.965Z,11.67
2018-09-27T06:16:51.544Z,11.74
2018-09-27T06:19:25.668Z,11.80
2018-09-27T06:21:58.733Z,11.84
2018-09-27T06:24:28.333Z,11.89
2018-09-27T06:27:01.824Z,11.91
2018-09-27T06:29:35.580Z,11.98
2018-09-27T06:32:09.956Z,11.98
2018-09-27T06:34:43.774Z,12.00
2018-09-27T06:37:18.129Z,11.98
2018-09-27T06:39:53.009Z,12.01
2018-09-27T06:42:27.456Z,12.07
2018-09-27T06:45:00.879Z,12.13
2018-09-27T06:47:34.561Z,12.18
2018-09-27T06:50:07.430Z,12.22
2018-09-27T06:52:39.919Z,12.28
2018-09-27T06:55:12.861Z,12.34
2018-09-27T06:57:45.829Z,12.41
2018-09-27T07:00:19.100Z,12.51
2018-09-27T07:02:52.523Z,12.57
2018-09-27T07:05:26.277Z,12.62
2018-09-27T07:07:59.486Z,12.73
2018-09-27T07:10:32.410Z,12.82
2018-09-27T07:13:05.986Z,12.92
2018-09-27T07:15:39.436Z,13.05
2018-09-27T07:18:09.328Z,13.14
2018-09-27T07:20:43.014Z,13.22
2018-09-27T07:23:16.821Z,13.34
2018-09-27T07:25:50.305Z,13.45
2018-09-27T07:28:24.865Z,13.56
2018-09-27T07:30:58.368Z,13.71
2018-09-27T07:33:32.252Z,13.80
2018-09-27T07:36:06.404Z,13.91
2018-09-27T07:38:39.746Z,14.04
2018-09-27T07:41:13.255Z,14.22
2018-09-27T07:43:46.887Z,14.39
2018-09-27T07:46:20.479Z,14.58
2018-09-27T07:48:53.606Z,14.76
2018-09-27T07:51:25.200Z,14.98
2018-09-27T07:53:58.403Z,15.12
2018-09-27T07:56:31.466Z,15.24
2018-09-27T07:59:05.003Z,15.31
2018-09-27T08:01:38.251Z,15.43
2018-09-27T08:04:11.515Z,15.51
2018-09-27T08:06:44.533Z,15.65
2018-09-27T08:09:17.474Z,15.74
2018-09-27T08:11:51.008Z,15.83
2018-09-27T08:14:20.597Z,15.93
2018-09-27T08:16:54.598Z,16.01
2018-09-27T08:19:27.801Z,16.11
2018-09-27T08:21:57.533Z,16.21
2018-09-27T08:24:30.619Z,16.31
2018-09-27T08:27:03.367Z,16.38
2018-09-27T08:29:36.959Z,16.47
2018-09-27T08:32:10.061Z,16.55
2018-09-27T08:34:44.604Z,16.58
2018-09-27T08:37:18.312Z,16.68
2018-09-27T08:39:51.801Z,16.72
2018-09-27T08:42:25.193Z,16.81
2018-09-27T08:44:58.310Z,16.91
2018-09-27T08:47:32.186Z,16.96
2018-09-27T08:50:06.147Z,17.05
2018-09-27T08:52:39.802Z,17.11
2018-09-27T08:55:13.373Z,17.25
2018-09-27T08:57:46.944Z,17.35
2018-09-27T09:00:20.125Z,17.40
2018-09-27T09:02:54.095Z,17.50
2018-09-27T09:05:27.226Z,17.56
2018-09-27T09:08:00.557Z,17.71
2018-09-27T09:10:33.313Z,17.78
2018-09-27T09:13:06.444Z,17.86
2018-09-27T09:15:39.566Z,17.98
2018-09-27T09:18:12.972Z,18.07
2018-09-27T09:20:46.789Z,18.15
2018-09-27T09:23:20.177Z,18.26
2018-09-27T09:25:53.652Z,18.34
2018-09-27T09:28:26.600Z,18.42
2018-09-27T09:30:57.369Z,18.62
2018-09-27T09:33:30.657Z,18.71
2018-09-27T09:36:00.676Z,18.86
2018-09-27T09:38:34.281Z,18.97
2018-09-27T09:41:03.890Z,19.13
2018-09-27T09:43:37.031Z,19.30
2018-09-27T09:46:10.522Z,19.43
2018-09-27T09:48:43.311Z,19.53
2018-09-27T09:51:16.190Z,19.70
2018-09-27T09:53:49.911Z,19.86
2018-09-27T09:56:22.839Z,19.97
2018-09-27T09:58:52.938Z,20.13
2018-09-27T10:01:26.947Z,20.22
2018-09-27T10:04:00.961Z,20.45
2018-09-27T10:06:34.178Z,20.55
2018-09-27T10:09:08.477Z,20.69
2018-09-27T10:11:41.603Z,20.85
2018-09-27T10:14:14.527Z,20.88
2018-09-27T10:16:48.077Z,21.08
2018-09-27T10:19:17.847Z,21.37
2018-09-27T10:21:47.462Z,21.54
2018-09-27T10:24:17.121Z,21.75
2018-09-27T10:26:46.661Z,21.95
2018-09-27T10:29:16.158Z,22.02
2018-09-27T10:31:45.709Z,22.11
2018-09-27T10:34:15.307Z,22.09
2018-09-27T10:36:45.021Z,22.13
2018-09-27T10:39:14.560Z,22.18
2018-09-27T10:41:44.298Z,22.35
2018-09-27T10:44:14.290Z,22.47
2018-09-27T10:46:43.832Z,22.59
2018-09-27T10:49:31.365Z,22.59
2018-09-27T10:52:00.941Z,22.58
2018-09-27T10:54:30.467Z,22.43
2018-09-27T10:57:00.209Z,22.57
2018-09-27T10:59:29.976Z,22.65
2018-09-27T11:01:59.667Z,22.78
2018-09-27T11:04:29.188Z,22.70
2018-09-27T11:06:58.732Z,22.47
2018-09-27T11:09:28.281Z,22.59
2018-09-27T11:11:58.144Z,22.64
2018-09-27T11:14:27.729Z,22.67
2018-09-27T11:16:57.401Z,22.78
2018-09-27T11:19:27.031Z,22.79
2018-09-27T11:21:56.581Z,22.62
2018-09-27T11:24:26.316Z,22.71
2018-09-27T11:26:55.833Z,22.52
2018-09-27T11:29:30.546Z,22.66
2018-09-27T11:32:05.250Z,22.61
2018-09-27T11:34:35.106Z,22.62
2018-09-27T11:37:04.660Z,22.74
2018-09-27T11:39:34.281Z,22.61
2018-09-27T11:42:03.956Z,22.72
2018-09-27T11:44:33.502Z,22.69
2018-09-27T11:47:03.124Z,22.81
2018-09-27T11:49:32.756Z,22.84
2018-09-27T11:52:02.426Z,22.81
2018-09-27T11:54:31.973Z,22.92
2018-09-27T11:57:01.524Z,22.99
2018-09-27T11:59:31.105Z,23.08
2018-09-27T12:02:00.760Z,23.14
2018-09-27T12:04:30.331Z,23.18
2018-09-27T12:06:59.911Z,23.19
2018-09-27T12:09:29.477Z,23.25
2018-09-27T12:11:59.620Z,23.23
2018-09-27T12:14:29.293Z,23.24
2018-09-27T12:16:58.871Z,23.29
2018-09-27T12:19:28.457Z,23.26
2018-09-27T12:21:58.463Z,23.31
2018-09-27T12:24:28.020Z,23.35
2018-09-27T12:26:57.555Z,23.38
2018-09-27T12:29:27.086Z,23.40
2018-09-27T12:31:57.062Z,23.36
2018-09-27T12:34:27.365Z,23.39
2018-09-27T12:36:56.999Z,23.47
2018-09-27T12:39:26.604Z,23.53
2018-09-27T12:41:56.440Z,23.56
2018-09-27T12:44:26.056Z,23.55
2018-09-27T12:46:55.655Z,23.58
2018-09-27T12:49:25.391Z,23.59
2018-09-27T12:51:58.696Z,23.59
2018-09-27T12:54:29.169Z,23.64
2018-09-27T12:56:58.713Z,23.61
2018-09-27T12:59:28.336Z,23.69
2018-09-27T13:01:58.022Z,23.75
2018-09-27T13:04:27.679Z,23.79
2018-09-27T13:06:57.309Z,23.73
2018-09-27T13:09:27.242Z,23.85
2018-09-27T13:11:56.901Z,23.85
2018-09-27T13:14:26.640Z,23.89
2018-09-27T13:16:56.412Z,23.90
2018-09-27T13:19:25.979Z,23.90
2018-09-27T13:21:55.753Z,23.89
2018-09-27T13:24:25.555Z,23.90
2018-09-27T13:26:55.353Z,24.03
2018-09-27T13:29:25.093Z,24.03
2018-09-27T13:31:54.667Z,24.05
2018-09-27T13:34:24.465Z,24.08
2018-09-27T13:36:54.063Z,24.18
2018-09-27T13:39:24.842Z,24.21
2018-09-27T13:41:55.435Z,24.23
2018-09-27T13:44:25.025Z,24.25
2018-09-27T13:46:54.615Z,24.22
2018-09-27T13:49:24.187Z,24.25
2018-09-27T13:51:53.720Z,24.29
2018-09-27T13:54:23.470Z,24.21
2018-09-27T13:56:53.075Z,24.15
2018-09-27T13:59:22.813Z,24.12
2018-09-27T14:01:52.374Z,24.13
2018-09-27T14:04:22.366Z,24.15
2018-09-27T14:06:51.915Z,24.26
2018-09-27T14:09:21.465Z,24.18
2018-09-27T14:11:50.988Z,24.28
2018-09-27T14:14:20.625Z,24.35
2018-09-27T14:16:50.618Z,24.38
2018-09-27T14:19:20.349Z,24.43
2018-09-27T14:21:50.226Z,24.35
2018-09-27T14:24:19.811Z,24.44
2018-09-27T14:26:49.351Z,24.39
2018-09-27T14:29:18.893Z,24.39
2018-09-27T14:31:48.456Z,24.44
2018-09-27T14:34:18.025Z,24.47
2018-09-27T14:36:47.964Z,24.41
2018-09-27T14:39:17.680Z,24.44
2018-09-27T14:41:47.330Z,24.48
2018-09-27T14:44:17.010Z,24.49
2018-09-27T14:46:46.615Z,24.51
2018-09-27T14:49:16.166Z,24.44
2018-09-27T14:51:45.752Z,24.43
2018-09-27T14:54:15.324Z,24.40
2018-09-27T14:56:44.948Z,24.43
2018-09-27T14:59:14.454Z,24.40
2018-09-27T15:01:44.069Z,24.41
2018-09-27T15:04:13.647Z,24.36
2018-09-27T15:06:43.363Z,24.36
2018-09-27T15:09:13.251Z,24.33
2018-09-27T15:11:43.008Z,24.33
2018-09-27T15:14:12.800Z,24.27
2018-09-27T15:16:42.421Z,24.18
2018-09-27T15:19:12.354Z,24.14
2018-09-27T15:21:41.984Z,24.09
2018-09-27T15:24:11.531Z,24.04
2018-09-27T15:26:41.092Z,24.02
2018-09-27T15:29:11.109Z,23.94
2018-09-27T15:31:40.841Z,23.87
2018-09-27T15:34:10.401Z,23.87
2018-09-27T15:36:40.082Z,23.76
2018-09-27T15:40:12.909Z,23.70
2018-09-27T15:42:42.481Z,23.55
2018-09-27T15:45:12.047Z,23.58
2018-09-27T15:47:41.703Z,23.57
2018-09-27T15:50:11.280Z,23.39
2018-09-27T15:52:40.992Z,23.43
2018-09-27T15:55:10.591Z,23.40
2018-09-27T15:57:40.247Z,23.34
2018-09-27T16:00:09.868Z,23.32
2018-09-27T16:02:39.436Z,23.31
2018-09-27T16:05:09.023Z,23.31
2018-09-27T16:07:39.739Z,23.31
2018-09-27T16:10:09.297Z,23.23
2018-09-27T16:12:38.917Z,23.20
2018-09-27T16:15:08.728Z,23.17
2018-09-27T16:17:38.433Z,23.11
2018-09-27T16:20:08.230Z,23.08
2018-09-27T16:22:37.987Z,22.97
2018-09-27T16:25:08.064Z,22.88
2018-09-27T16:27:37.743Z,22.79
2018-09-27T16:30:08.086Z,22.67
2018-09-27T16:32:38.339Z,22.57
2018-09-27T16:35:08.737Z,22.57
2018-09-27T16:37:38.263Z,22.55
2018-09-27T16:40:09.693Z,22.48
2018-09-27T16:42:39.398Z,22.42
2018-09-27T16:45:09.319Z,22.34
2018-09-27T16:47:38.916Z,22.22
2018-09-27T16:50:08.678Z,22.13
2018-09-27T16:52:38.255Z,22.03
2018-09-27T16:55:07.981Z,21.98
2018-09-27T16:57:37.590Z,21.90
2018-09-27T17:00:07.847Z,21.81
2018-09-27T17:02:42.646Z,21.68
2018-09-27T17:05:12.200Z,21.55
2018-09-27T17:07:41.830Z,21.45
2018-09-27T17:10:11.372Z,21.36
2018-09-27T17:12:40.890Z,21.32
2018-09-27T17:15:10.858Z,21.26
2018-09-27T17:17:40.500Z,21.23
2018-09-27T17:20:10.281Z,21.15
2018-09-27T17:22:39.924Z,21.10
2018-09-27T17:25:09.715Z,21.03
2018-09-27T17:27:39.780Z,20.95
2018-09-27T17:30:09.752Z,20.87
2018-09-27T17:32:39.339Z,20.80
2018-09-27T17:35:09.515Z,20.69
2018-09-27T17:37:39.274Z,20.58
2018-09-27T17:40:08.956Z,20.45
2018-09-27T17:42:38.691Z,20.28
2018-09-27T17:45:08.587Z,20.20
2018-09-27T17:47:40.344Z,20.09
2018-09-27T17:50:10.194Z,19.95
2018-09-27T17:52:39.875Z,19.78
2018-09-27T17:55:10.616Z,19.64
2018-09-27T17:57:40.352Z,19.61
2018-09-27T18:00:10.619Z,19.51
2018-09-27T18:02:40.156Z,19.42
2018-09-27T18:05:18.982Z,19.37
2018-09-27T18:07:39.797Z,19.28
2018-09-27T18:10:09.876Z,19.27
2018-09-27T18:12:39.446Z,19.23
2018-09-27T18:15:09.007Z,19.13
2018-09-27T18:17:38.662Z,19.06
2018-09-27T18:20:11.979Z,19.02
2018-09-27T18:22:45.032Z,18.88
2018-09-27T18:25:18.194Z,18.77
2018-09-27T18:27:51.172Z,18.66
2018-09-27T18:30:23.724Z,18.59
2018-09-27T18:32:55.330Z,18.55
2018-09-27T18:35:28.442Z,18.52
2018-09-27T18:38:00.608Z,18.50
2018-09-27T18:40:30.464Z,18.48
2018-09-27T18:43:00.024Z,18.50
2018-09-27T18:45:33.499Z,18.33
2018-09-27T18:48:06.612Z,18.26
2018-09-27T18:50:38.642Z,18.14
2018-09-27T18:53:12.591Z,18.06
2018-09-27T18:55:46.119Z,18.05
2018-09-27T18:58:19.299Z,17.96
2018-09-27T19:00:52.523Z,17.89
2018-09-27T19:03:25.524Z,17.81
2018-09-27T19:05:59.209Z,17.76
2018-09-27T19:08:29.027Z,17.76
2018-09-27T19:11:02.256Z,17.80
2018-09-27T19:13:36.204Z,17.84
2018-09-27T19:16:10.409Z,17.89
2018-09-27T19:18:42.257Z,17.88
2018-09-27T19:21:14.486Z,17.86
2018-09-27T19:23:47.818Z,17.80
2018-09-27T19:26:21.086Z,17.69
2018-09-27T19:28:53.503Z,17.60
2018-09-27T19:31:25.918Z,17.54
2018-09-27T19:33:57.425Z,17.45
2018-09-27T19:36:30.141Z,17.36
2018-09-27T19:39:02.992Z,17.16
2018-09-27T19:41:36.218Z,16.97
2018-09-27T19:44:08.858Z,16.84
2018-09-27T19:46:41.911Z,16.85
2018-09-27T19:49:15.301Z,16.78
2018-09-27T19:51:48.251Z,16.70
2018-09-27T19:54:21.578Z,16.60
2018-09-27T19:56:54.667Z,16.53
2018-09-27T19:59:28.151Z,16.50
2018-09-27T20:02:00.704Z,16.53
2018-09-27T20:04:33.887Z,16.50
2018-09-27T20:07:03.619Z,16.43
2018-09-27T20:09:33.239Z,16.41
2018-09-27T20:12:07.302Z,16.45
2018-09-27T20:14:37.136Z,16.50
2018-09-27T20:17:10.534Z,16.46
2018-09-27T20:19:44.076Z,16.34
2018-09-27T20:22:14.014Z,16.16
2018-09-27T20:24:46.768Z,16.09
2018-09-27T20:27:17.452Z,16.07
2018-09-27T20:29:48.357Z,16.06
2018-09-27T20:32:20.717Z,15.99
2018-09-27T20:34:53.527Z,15.93
2018-09-27T20:37:23.810Z,15.86
2018-09-27T20:39:57.140Z,15.78
2018-09-27T20:42:30.811Z,15.68
2018-09-27T20:45:04.202Z,15.55
2018-09-27T20:47:33.882Z,15.58
2018-09-27T20:50:06.693Z,15.55
2018-09-27T20:52:39.963Z,15.33
2018-09-27T20:55:10.580Z,15.16
2018-09-27T20:57:43.649Z,15.09
2018-09-27T21:00:17.127Z,15.21
2018-09-27T21:02:50.195Z,15.27
2018-09-27T21:05:22.911Z,15.27
2018-09-27T21:07:56.018Z,15.27
2018-09-27T21:10:28.593Z,15.24
2018-09-27T21:12:58.152Z,15.16
2018-09-27T21:15:31.608Z,15.07
2018-09-27T21:18:04.843Z,15.07
2018-09-27T21:20:38.035Z,15.06
2018-09-27T21:23:11.525Z,15.04
2018-09-27T21:25:44.341Z,15.01
2018-09-27T21:28:20.104Z,15.00
2018-09-27T21:30:52.961Z,14.91
2018-09-27T21:33:26.767Z,14.83
2018-09-27T21:35:59.957Z,14.67
2018-09-27T21:38:33.119Z,14.49
2018-09-27T21:41:06.551Z,14.41
2018-09-27T21:43:40.028Z,14.48
2018-09-27T21:46:13.102Z,14.46
2018-09-27T21:48:46.775Z,14.41
2018-09-27T21:51:20.129Z,14.38
2018-09-27T21:53:53.094Z,14.34
2018-09-27T21:56:25.178Z,14.34
2018-09-27T21:58:58.558Z,14.42
2018-09-27T22:01:28.304Z,14.40
2018-09-27T22:03:57.884Z,14.34
2018-09-27T22:06:27.451Z,14.33
2018-09-27T22:08:57.001Z,14.28
2018-09-27T22:11:26.582Z,14.32
2018-09-27T22:13:56.237Z,14.32
2018-09-27T22:16:25.830Z,14.38
2018-09-27T22:18:55.430Z,14.44
2018-09-27T22:21:25.029Z,14.52
2018-09-27T22:23:54.865Z,14.61
2018-09-27T22:26:24.456Z,14.66
2018-09-27T22:28:54.375Z,14.72
2018-09-27T22:31:23.904Z,14.77
2018-09-27T22:33:53.450Z,14.82
2018-09-27T22:36:23.057Z,14.87
2018-09-27T22:38:52.622Z,14.91
2018-09-27T22:41:22.449Z,14.95
2018-09-27T22:43:51.985Z,14.96
2018-09-27T22:46:21.697Z,14.95
2018-09-27T22:48:51.254Z,14.92
2018-09-27T22:51:20.786Z,14.89
2018-09-27T22:53:50.519Z,14.91
2018-09-27T22:56:20.070Z,14.95
2018-09-27T22:58:49.671Z,14.97
2018-09-27T23:01:19.201Z,14.98
2018-09-27T23:03:48.741Z,14.99
2018-09-27T23:06:18.296Z,15.00
2018-09-27T23:08:47.954Z,14.98
2018-09-27T23:11:17.718Z,14.97
2018-09-27T23:13:47.317Z,15.01
2018-09-27T23:16:16.947Z,14.99
2018-09-27T23:18:46.524Z,14.96
2018-09-27T23:21:16.128Z,14.91
2018-09-27T23:23:45.656Z,14.93
2018-09-27T23:26:15.267Z,14.83
2018-09-27T23:28:44.900Z,14.90
2018-09-27T23:31:14.483Z,14.81
2018-09-27T23:33:44.091Z,14.80
2018-09-27T23:36:13.661Z,14.81
2018-09-27T23:38:43.269Z,14.82
2018-09-27T23:41:12.816Z,14.83
2018-09-27T23:43:42.377Z,14.80
2018-09-27T23:46:12.164Z,14.78
2018-09-27T23:48:41.724Z,14.74
2018-09-27T23:51:11.276Z,14.75
2018-09-27T23:53:40.811Z,14.72
2018-09-27T23:56:10.354Z,14.68
2018-09-27T23:58:39.945Z,14.64
